createdAt,value
2023-04-02T00:00:45.328Z,0.9
2023-04-02T00:03:47.370Z,1
2023-04-02T00:06:49.294Z,0.9
2023-04-02T00:09:51.217Z,1.1
2023-04-02T00:12:53.174Z,1.1
2023-04-02T00:15:55.146Z,0.9
2023-04-02T00:18:57.111Z,1.2
2023-04-02T00:21:59.126Z,0.9
2023-04-02T00:25:01.098Z,1
2023-04-02T00:28:03.070Z,0.8
2023-04-02T00:31:05.037Z,1
2023-04-02T00:34:06.967Z,0.9
2023-04-02T00:37:08.962Z,1.1
2023-04-02T00:40:10.908Z,0.9
2023-04-02T00:43:12.857Z,1.2
2023-04-02T00:46:14.856Z,1.2
2023-04-02T00:49:16.773Z,1.3
2023-04-02T00:52:18.777Z,1.5
2023-04-02T00:55:20.791Z,1.2
2023-04-02T00:58:22.734Z,1.3
2023-04-02T01:01:24.807Z,1.4
2023-04-02T01:04:26.714Z,1.8
2023-04-02T01:07:28.676Z,1.6
2023-04-02T01:10:30.633Z,1.5
2023-04-02T01:13:32.597Z,1.4
2023-04-02T01:16:34.570Z,1.3
2023-04-02T01:19:36.524Z,1.3
2023-04-02T01:22:38.475Z,1.4
2023-04-02T01:25:40.488Z,1.7
2023-04-02T01:28:42.427Z,1.5
2023-04-02T01:31:44.576Z,1.6
2023-04-02T01:34:46.460Z,1.7
2023-04-02T01:37:48.425Z,1.6
2023-04-02T01:40:50.422Z,2
2023-04-02T01:43:52.374Z,2.1
2023-04-02T01:46:54.381Z,2.2
2023-04-02T01:49:56.359Z,2
2023-04-02T01:52:58.302Z,2.4
2023-04-02T01:56:00.275Z,2.5
2023-04-02T01:59:02.261Z,2.4
2023-04-02T02:02:04.204Z,2.4
2023-04-02T02:05:06.127Z,2.7
2023-04-02T02:08:08.093Z,2.8
2023-04-02T02:11:10.059Z,3.2
2023-04-02T02:14:12.037Z,3.5
2023-04-02T02:17:13.986Z,3.2
2023-04-02T02:20:15.976Z,3.5
2023-04-02T02:23:17.921Z,4.2
2023-04-02T02:26:19.879Z,3.3
2023-04-02T02:29:21.835Z,3.3
2023-04-02T02:32:23.828Z,3.8
2023-04-02T02:35:25.768Z,3.2
2023-04-02T02:38:27.703Z,3.5
2023-04-02T02:41:29.673Z,3.6
2023-04-02T02:44:31.639Z,3.5
2023-04-02T02:47:33.635Z,2.8
2023-04-02T02:50:35.555Z,3.7
2023-04-02T02:53:37.506Z,2.9
2023-04-02T02:56:39.508Z,3.1
2023-04-02T02:59:41.478Z,3.8
2023-04-02T03:02:43.504Z,3.7
2023-04-02T03:05:48.204Z,3.5
2023-04-02T03:08:50.137Z,4
2023-04-02T03:11:52.110Z,3.5
2023-04-02T03:14:54.057Z,4
2023-04-02T03:17:56.101Z,3.9
2023-04-02T03:20:57.997Z,3.6
2023-04-02T03:23:59.934Z,3.9
2023-04-02T03:27:01.931Z,3.3
2023-04-02T03:30:03.877Z,3.4
2023-04-02T03:33:05.939Z,3.7
2023-04-02T03:36:07.794Z,3.4
2023-04-02T03:39:09.734Z,3.2
2023-04-02T03:42:11.719Z,3.3
2023-04-02T03:45:13.688Z,3.1
2023-04-02T03:48:15.627Z,3
2023-04-02T03:51:17.586Z,3
2023-04-02T03:54:19.546Z,2.9
2023-04-02T03:57:21.532Z,2.9
2023-04-02T04:00:23.459Z,3.3
2023-04-02T04:03:25.434Z,2.8
2023-04-02T04:06:27.383Z,2.7
2023-04-02T04:09:29.349Z,2.8
2023-04-02T04:12:31.305Z,2.6
2023-04-02T04:15:33.708Z,3
2023-04-02T04:18:35.239Z,3.3
2023-04-02T04:21:37.199Z,2.9
2023-04-02T04:24:39.145Z,2.9
2023-04-02T04:27:41.113Z,3.4
2023-04-02T04:30:43.074Z,3.4
2023-04-02T04:33:45.052Z,3.4
2023-04-02T04:36:47.027Z,3.7
2023-04-02T04:39:48.988Z,3.4
2023-04-02T04:42:50.944Z,2.9
2023-04-02T04:45:52.933Z,4.1
2023-04-02T04:48:54.874Z,4.4
2023-04-02T04:51:56.826Z,3.7
2023-04-02T04:54:58.785Z,3.4
2023-04-02T04:58:00.771Z,3.6
2023-04-02T05:01:02.780Z,4.1
2023-04-02T05:04:04.709Z,4.4
2023-04-02T05:07:06.659Z,4
2023-04-02T05:10:08.668Z,4.2
2023-04-02T05:13:10.614Z,4.5
2023-04-02T05:16:12.594Z,3.8
2023-04-02T05:19:14.551Z,4.5
2023-04-02T05:22:16.507Z,4.2
2023-04-02T05:25:18.478Z,4.3
2023-04-02T05:28:20.426Z,3.9
2023-04-02T05:31:22.420Z,4.4
2023-04-02T05:34:24.380Z,4
2023-04-02T05:37:26.337Z,4.1
2023-04-02T05:40:28.289Z,4.4
2023-04-02T05:43:30.272Z,4.5
2023-04-02T05:46:32.266Z,3.9
2023-04-02T05:49:34.214Z,3.6
2023-04-02T05:52:36.220Z,3.7
2023-04-02T05:55:38.147Z,3.8
2023-04-02T05:58:40.346Z,4.6
2023-04-02T06:01:42.135Z,5.8
2023-04-02T06:04:44.021Z,5.9
2023-04-02T06:07:46.088Z,5.5
2023-04-02T06:10:48.002Z,5.7
2023-04-02T06:13:50.052Z,6
2023-04-02T06:16:51.999Z,5.5
2023-04-02T06:19:53.941Z,6.5
2023-04-02T06:22:55.906Z,7.3
2023-04-02T06:25:57.886Z,3.6
2023-04-02T06:28:59.914Z,1.6
2023-04-02T06:32:01.895Z,1.4
2023-04-02T06:35:03.852Z,0.9
2023-04-02T06:38:05.849Z,0.8
2023-04-02T06:41:07.818Z,0.6
2023-04-02T06:44:09.808Z,0.6
2023-04-02T06:47:11.912Z,0.5
2023-04-02T06:50:13.708Z,0.5
2023-04-02T06:53:15.676Z,0.5
2023-04-02T06:56:17.635Z,0.5
2023-04-02T06:59:19.600Z,0.7
2023-04-02T07:02:21.584Z,0.5
2023-04-02T07:05:23.571Z,0.8
2023-04-02T07:08:25.526Z,0.6
2023-04-02T07:11:27.464Z,0.5
2023-04-02T07:14:29.437Z,0.6
2023-04-02T07:17:31.513Z,0.6
2023-04-02T07:20:33.365Z,0.6
2023-04-02T07:23:35.304Z,0.5
2023-04-02T07:26:37.247Z,0.6
2023-04-02T07:29:39.223Z,0.6
2023-04-02T07:32:41.218Z,0.5
2023-04-02T07:35:43.192Z,0.6
2023-04-02T07:38:45.128Z,0.4
2023-04-02T07:41:47.100Z,0.6
2023-04-02T07:44:49.036Z,0.7
2023-04-02T07:47:51.018Z,0.5
2023-04-02T07:50:53.081Z,0.5
2023-04-02T07:53:54.930Z,0.5
2023-04-02T07:56:56.994Z,0.5
2023-04-02T07:59:58.864Z,0.6
2023-04-02T08:03:00.870Z,0.5
2023-04-02T08:06:03.004Z,0.5
2023-04-02T08:09:04.752Z,0.4
2023-04-02T08:12:06.722Z,0.6
2023-04-02T08:15:08.668Z,0.5
2023-04-02T08:18:10.722Z,0.7
2023-04-02T08:21:13.316Z,0.6
2023-04-02T08:24:14.555Z,0.6
2023-04-02T08:27:16.531Z,0.6
2023-04-02T08:30:18.612Z,0.6
2023-04-02T08:33:20.434Z,0.6
2023-04-02T08:36:22.450Z,0.4
2023-04-02T08:39:24.358Z,0.7
2023-04-02T08:42:26.329Z,0.7
2023-04-02T08:45:28.551Z,0.6
2023-04-02T08:48:30.351Z,0.7
2023-04-02T08:51:32.253Z,0.8
2023-04-02T08:54:34.790Z,0.7
2023-04-02T08:57:36.194Z,0.8
2023-04-02T09:00:38.189Z,0.7
2023-04-02T09:03:40.089Z,0.9
2023-04-02T09:06:42.032Z,0.8
2023-04-02T09:09:44.008Z,0.8
2023-04-02T09:12:45.992Z,0.8
2023-04-02T09:15:47.936Z,0.7
2023-04-02T09:18:49.923Z,0.9
2023-04-02T09:21:51.850Z,0.8
2023-04-02T09:24:53.802Z,1
2023-04-02T09:27:55.776Z,0.9
2023-04-02T09:30:57.748Z,0.9
2023-04-02T09:33:59.678Z,1
2023-04-02T09:37:01.652Z,0.9
2023-04-02T09:40:03.587Z,1.1
2023-04-02T09:43:05.589Z,1
2023-04-02T09:46:07.542Z,1.1
2023-04-02T09:49:09.505Z,1
2023-04-02T09:52:11.446Z,1
2023-04-02T09:55:13.403Z,1
2023-04-02T09:58:15.366Z,1
2023-04-02T10:01:17.366Z,1.2
2023-04-02T10:04:19.346Z,1
2023-04-02T10:07:21.252Z,0.9
2023-04-02T10:10:24.521Z,0.9
2023-04-02T10:13:25.192Z,1.1
2023-04-02T10:16:27.246Z,1
2023-04-02T10:19:29.113Z,0.9
2023-04-02T10:22:31.055Z,1
2023-04-02T10:25:33.052Z,0.9
2023-04-02T10:28:35.028Z,1.1
2023-04-02T10:31:36.994Z,1
2023-04-02T10:34:39.392Z,0.9
2023-04-02T10:37:40.924Z,1
2023-04-02T10:40:42.870Z,0.8
2023-04-02T10:43:44.991Z,0.9
2023-04-02T10:46:46.829Z,1
2023-04-02T10:49:48.811Z,1
2023-04-02T10:52:50.730Z,1.3
2023-04-02T10:55:52.706Z,0.9
2023-04-02T10:58:56.188Z,1
2023-04-02T11:01:56.646Z,0.9
2023-04-02T11:04:59.908Z,0.8
2023-04-02T11:08:00.566Z,0.9
2023-04-02T11:11:04.463Z,0.9
2023-04-02T11:14:04.501Z,1
2023-04-02T11:17:06.442Z,0.7
2023-04-02T11:20:08.383Z,0.8
2023-04-02T11:23:10.367Z,0.9
2023-04-02T11:26:12.307Z,0.8
2023-04-02T11:29:14.278Z,0.9
2023-04-02T11:32:16.227Z,1.4
2023-04-02T11:35:18.185Z,1.4
2023-04-02T11:38:20.141Z,1.5
2023-04-02T11:41:22.103Z,1.4
2023-04-02T11:44:24.078Z,1.1
2023-04-02T11:47:26.055Z,1.4
2023-04-02T11:50:27.999Z,1.3
2023-04-02T11:53:29.959Z,1.5
2023-04-02T11:56:31.953Z,1.3
2023-04-02T11:59:33.901Z,1.1
2023-04-02T12:02:35.904Z,1.6
2023-04-02T12:05:38.145Z,1.4
2023-04-02T12:08:50.808Z,1.5
2023-04-02T12:11:41.966Z,1.7
2023-04-02T12:14:43.814Z,1.5
2023-04-02T12:17:45.795Z,1.7
2023-04-02T12:20:47.717Z,1.8
2023-04-02T12:23:49.671Z,1.6
2023-04-02T12:26:51.634Z,1.9
2023-04-02T12:29:53.593Z,1.5
2023-04-02T12:32:55.649Z,2
2023-04-02T12:35:57.646Z,1.9
2023-04-02T12:38:59.503Z,1.7
2023-04-02T12:42:01.460Z,1.9
2023-04-02T12:45:03.445Z,1.9
2023-04-02T12:48:05.451Z,2.4
2023-04-02T12:51:07.354Z,2.2
2023-04-02T12:54:09.306Z,2.3
2023-04-02T12:57:11.292Z,2.1
2023-04-02T13:00:13.219Z,2.3
2023-04-02T13:03:15.300Z,2.3
2023-04-02T13:06:17.144Z,2
2023-04-02T13:09:19.128Z,2
2023-04-02T13:12:21.130Z,2
2023-04-02T13:15:23.106Z,2.3
2023-04-02T13:18:25.073Z,2.2
2023-04-02T13:21:28.275Z,2.3
2023-04-02T13:24:28.959Z,3
2023-04-02T13:27:30.934Z,2.9
2023-04-02T13:30:32.927Z,2.4
2023-04-02T13:33:34.869Z,2.6
2023-04-02T13:36:36.823Z,2.5
2023-04-02T13:39:38.768Z,2.8
2023-04-02T13:42:40.756Z,3
2023-04-02T13:45:42.754Z,3.3
2023-04-02T13:48:44.679Z,3
2023-04-02T13:51:46.669Z,3
2023-04-02T13:54:48.582Z,3.6
2023-04-02T13:57:50.570Z,3.5
2023-04-02T14:00:52.541Z,3.6
2023-04-02T14:03:54.558Z,3.6
2023-04-02T14:06:56.433Z,3.6
2023-04-02T14:09:58.440Z,3.7
2023-04-02T14:13:00.339Z,3.7
2023-04-02T14:16:02.300Z,4.2
2023-04-02T14:19:04.266Z,3.4
2023-04-02T14:22:06.233Z,3.7
2023-04-02T14:25:08.193Z,3.7
2023-04-02T14:28:10.134Z,3.8
2023-04-02T14:31:12.274Z,3.7
2023-04-02T14:34:14.091Z,3.9
2023-04-02T14:37:16.045Z,3.8
2023-04-02T14:40:18.002Z,3.9
2023-04-02T14:43:19.973Z,3.6
2023-04-02T14:46:21.988Z,3.6
2023-04-02T14:49:23.882Z,4
2023-04-02T14:52:25.822Z,4
2023-04-02T14:55:27.785Z,3.5
2023-04-02T14:58:29.740Z,3.7
2023-04-02T15:01:31.850Z,3.5
2023-04-02T15:04:33.692Z,3.4
2023-04-02T15:07:35.641Z,4
2023-04-02T15:10:37.865Z,3.5
2023-04-02T15:13:39.564Z,3.6
2023-04-02T15:16:41.762Z,3.4
2023-04-02T15:19:43.511Z,3.3
2023-04-02T15:22:45.464Z,2.9
2023-04-02T15:25:47.451Z,2.8
2023-04-02T15:28:49.389Z,2.7
2023-04-02T15:31:51.410Z,2.8
2023-04-02T15:34:53.335Z,2.3
2023-04-02T15:37:55.310Z,2.8
2023-04-02T15:40:57.283Z,3.1
2023-04-02T15:43:59.251Z,3.5
2023-04-02T15:47:01.210Z,3.9
2023-04-02T15:50:03.186Z,3.9
2023-04-02T15:53:05.111Z,3.7
2023-04-02T15:56:07.106Z,3.6
2023-04-02T15:59:09.018Z,3.6
2023-04-02T16:02:10.988Z,3.8
2023-04-02T16:05:12.933Z,3.7
2023-04-02T16:08:14.951Z,3.9
2023-04-02T16:11:16.902Z,4.2
2023-04-02T16:14:18.878Z,4.5
2023-04-02T16:17:24.720Z,3.8
2023-04-02T16:20:22.764Z,3.8
2023-04-02T16:23:24.772Z,3.4
2023-04-02T16:26:26.703Z,3.7
2023-04-02T16:29:28.661Z,4.4
2023-04-02T16:32:30.642Z,4.5
2023-04-02T16:35:41.512Z,3.9
2023-04-02T16:38:34.520Z,3.8
2023-04-02T16:41:36.475Z,4.6
2023-04-02T16:44:38.444Z,4.2
2023-04-02T16:47:40.462Z,3.7
2023-04-02T16:50:42.396Z,4.5
2023-04-02T16:53:54.721Z,4
2023-04-02T16:56:46.307Z,3.7
2023-04-02T16:59:48.290Z,3.8
2023-04-02T17:02:50.250Z,3.4
2023-04-02T17:05:52.209Z,3.9
2023-04-02T17:08:54.342Z,3.3
2023-04-02T17:11:56.294Z,3.8
2023-04-02T17:14:58.089Z,3.8
2023-04-02T17:18:00.087Z,3.4
2023-04-02T17:21:02.006Z,3.4
2023-04-02T17:24:03.979Z,3.3
2023-04-02T17:27:05.980Z,3.1
2023-04-02T17:30:07.908Z,3
2023-04-02T17:33:09.858Z,3.1
2023-04-02T17:36:11.810Z,3.3
2023-04-02T17:39:13.760Z,3.2
2023-04-02T17:42:15.726Z,3
2023-04-02T17:45:17.690Z,2.9
2023-04-02T17:48:19.660Z,3.1
2023-04-02T17:51:21.620Z,3
2023-04-02T17:54:23.589Z,3.4
2023-04-02T17:57:25.612Z,3.6
2023-04-02T18:00:27.512Z,3.4
2023-04-02T18:03:30.183Z,3.1
2023-04-02T18:06:31.431Z,3.5
2023-04-02T18:09:33.389Z,3
2023-04-02T18:12:35.363Z,2.9
2023-04-02T18:15:37.317Z,3
2023-04-02T18:18:39.281Z,2.9
2023-04-02T18:21:41.263Z,3
2023-04-02T18:24:43.214Z,2.7
2023-04-02T18:27:45.189Z,3.3
2023-04-02T18:30:47.149Z,3.1
2023-04-02T18:33:49.082Z,3.2
2023-04-02T18:36:51.069Z,2.7
2023-04-02T18:39:53.095Z,2.3
2023-04-02T18:42:55.018Z,2.4
2023-04-02T18:45:56.982Z,2.6
2023-04-02T18:48:58.944Z,2.9
2023-04-02T18:52:00.909Z,2.6
2023-04-02T18:55:02.873Z,2.6
2023-04-02T18:58:04.868Z,2.5
2023-04-02T19:01:06.812Z,2.4
2023-04-02T19:04:08.785Z,2.9
2023-04-02T19:07:10.824Z,2.7
2023-04-02T19:10:12.928Z,2.4
2023-04-02T19:13:14.832Z,2.8
2023-04-02T19:16:16.828Z,2.8
2023-04-02T19:19:18.787Z,2.6
2023-04-02T19:22:20.746Z,2.6
2023-04-02T19:25:24.207Z,2.4
2023-04-02T19:28:24.693Z,2.7
2023-04-02T19:31:26.688Z,3.4
2023-04-02T19:34:28.614Z,2.8
2023-04-02T19:37:30.574Z,2.9
2023-04-02T19:40:32.611Z,2.7
2023-04-02T19:43:34.537Z,2.4
2023-04-02T19:46:36.531Z,2.2
2023-04-02T19:49:38.476Z,2.2
2023-04-02T19:52:40.477Z,2.3
2023-04-02T19:55:42.408Z,1.8
2023-04-02T19:58:44.365Z,2.1
2023-04-02T20:01:46.369Z,2.4
2023-04-02T20:04:48.318Z,2
2023-04-02T20:07:50.303Z,1.8
2023-04-02T20:10:52.265Z,2
2023-04-02T20:13:54.247Z,1.8
2023-04-02T20:16:56.251Z,1.8
2023-04-02T20:19:58.190Z,1.5
2023-04-02T20:23:00.149Z,1.7
2023-04-02T20:26:02.111Z,1.9
2023-04-02T20:29:04.086Z,1.6
2023-04-02T20:32:06.084Z,1.9
2023-04-02T20:35:07.996Z,1.8
2023-04-02T20:38:09.995Z,1.9
2023-04-02T20:41:12.068Z,1.6
2023-04-02T20:44:13.924Z,1.8
2023-04-02T20:47:15.954Z,1.5
2023-04-02T20:50:17.886Z,1.9
2023-04-02T20:53:19.853Z,1.8
2023-04-02T20:56:21.800Z,1.9
2023-04-02T20:59:23.773Z,2
2023-04-02T21:02:25.793Z,1.9
2023-04-02T21:05:27.781Z,1.7
2023-04-02T21:08:29.678Z,1.9
2023-04-02T21:11:31.652Z,1.8
2023-04-02T21:14:33.639Z,1.8
2023-04-02T21:17:35.616Z,1.6
2023-04-02T21:20:37.572Z,2
2023-04-02T21:23:39.525Z,1.8
2023-04-02T21:26:41.486Z,1.4
2023-04-02T21:29:43.543Z,1.7
2023-04-02T21:32:45.512Z,1.6
2023-04-02T21:35:47.443Z,2
2023-04-02T21:38:49.353Z,1.7
2023-04-02T21:41:51.314Z,1.7
2023-04-02T21:44:53.265Z,1.9
2023-04-02T21:47:55.351Z,1.6
2023-04-02T21:50:57.264Z,1.8
2023-04-02T21:53:59.218Z,2.1
2023-04-02T21:57:01.246Z,1.9
2023-04-02T22:00:03.161Z,2
2023-04-02T22:03:05.169Z,2.2
2023-04-02T22:06:07.077Z,2
2023-04-02T22:09:09.064Z,2.1
2023-04-02T22:12:11.369Z,1.8
2023-04-02T22:15:13.494Z,2
2023-04-02T22:18:14.976Z,1.9
2023-04-02T22:21:16.934Z,2
2023-04-02T22:24:18.926Z,1.9
2023-04-02T22:27:20.881Z,1.7
2023-04-02T22:30:22.875Z,2
2023-04-02T22:33:24.818Z,1.7
2023-04-02T22:36:26.796Z,2.3
2023-04-02T22:39:28.837Z,1.8
2023-04-02T22:42:30.776Z,1.6
2023-04-02T22:45:32.747Z,1.6
2023-04-02T22:48:34.697Z,1.6
2023-04-02T22:51:36.673Z,1.8
2023-04-02T22:54:38.651Z,1.7
2023-04-02T22:57:40.637Z,1.9
2023-04-02T23:00:42.582Z,1.6
2023-04-02T23:03:44.549Z,1.7
2023-04-02T23:06:46.567Z,2
2023-04-02T23:09:48.536Z,1.7
2023-04-02T23:12:50.493Z,1.8
2023-04-02T23:15:52.485Z,1.8
2023-04-02T23:18:54.433Z,1.8
2023-04-02T23:21:56.421Z,1.7
2023-04-02T23:24:58.408Z,1.9
2023-04-02T23:28:00.368Z,1.7
2023-04-02T23:31:02.350Z,1.9
2023-04-02T23:34:04.273Z,1.7
2023-04-02T23:37:06.240Z,1.6
2023-04-02T23:40:08.195Z,1.8
2023-04-02T23:43:10.179Z,1.8
2023-04-02T23:46:12.238Z,1.6
2023-04-02T23:49:14.095Z,1.8
2023-04-02T23:52:16.079Z,1.4
2023-04-02T23:55:18.035Z,1.3
2023-04-02T23:58:19.987Z,1.7
